テルアビブ / ベン・グリオン の空港の天気 - METARとTAF

ベン・グリオン国際空港(テルアビブ) ( LLBG / TLV ) - イスラエル ロード / テルアビブ
飛行場実況気象(Metar)
観測時間05/28 14:50 IDT (05/28 11:50 UTC)
風向・風速西北西 5m/s
視程10km以上
天気現象
なし
気温27℃
湿度51%
気圧1012hPa
METARLLBG 281150Z 29010KT CAVOK 27/16 Q1012 NOSIG
過去の天気等 Google飛行場航空写真 Wunderground天気予報

過去48時間のMETAR

飛行場予報(TAF)
発表時間: 5/28 14:09 IDT (5/28 11:09 UTC)
予報対象時間: 28日15時 IDT ~ 29日15時 IDT
風向・風速西北西 6m/s
視程10km以上
なし
28日19時 IDT ~ 28日21時 IDT に徐々に
風向・風速北 3m/s
28日22時 IDT ~ 28日24時 IDT に徐々に
風向・風速不定 2m/s
29日9時 IDT ~ 29日12時 IDT に徐々に
風向・風速北北西 8m/s
TAF LLBG 281109Z 2812/2912 30012KT CAVOK
BECMG 2816/2818 01005KT
BECMG 2819/2821 VRB03KT
BECMG 2906/2909 34015KT TX27/2812Z TN19/2903Z